sensor_id;sensor_type;location;lat;lon;timestamp;temperature;humidity
21261;DHT22;10788;47.930;9.766;2023-05-07T00:02:06;13.90;99.90
21261;DHT22;10788;47.930;9.766;2023-05-07T00:04:32;13.90;99.90
21261;DHT22;10788;47.930;9.766;2023-05-07T00:07:02;13.80;99.90
21261;DHT22;10788;47.930;9.766;2023-05-07T00:09:28;13.90;99.90
21261;DHT22;10788;47.930;9.766;2023-05-07T00:11:53;13.80;99.90
21261;DHT22;10788;47.930;9.766;2023-05-07T00:14:19;13.90;99.90
21261;DHT22;10788;47.930;9.766;2023-05-07T00:16:44;13.80;99.90
21261;DHT22;10788;47.930;9.766;2023-05-07T00:19:10;13.70;99.90
21261;DHT22;10788;47.930;9.766;2023-05-07T00:21:35;13.60;99.90
21261;DHT22;10788;47.930;9.766;2023-05-07T00:24:01;13.60;99.90
21261;DHT22;10788;47.930;9.766;2023-05-07T00:26:27;13.60;99.90
21261;DHT22;10788;47.930;9.766;2023-05-07T00:28:52;13.50;99.90
21261;DHT22;10788;47.930;9.766;2023-05-07T00:31:18;13.60;99.90
21261;DHT22;10788;47.930;9.766;2023-05-07T00:33:44;13.50;99.90
21261;DHT22;10788;47.930;9.766;2023-05-07T00:36:09;13.50;99.90
21261;DHT22;10788;47.930;9.766;2023-05-07T00:38:35;13.50;99.90
21261;DHT22;10788;47.930;9.766;2023-05-07T00:41:00;13.40;99.90
21261;DHT22;10788;47.930;9.766;2023-05-07T00:43:27;13.40;99.90
21261;DHT22;10788;47.930;9.766;2023-05-07T00:45:53;13.40;99.90
21261;DHT22;10788;47.930;9.766;2023-05-07T00:48:19;13.40;99.90
21261;DHT22;10788;47.930;9.766;2023-05-07T00:50:45;13.50;99.90
21261;DHT22;10788;47.930;9.766;2023-05-07T00:53:12;13.40;99.90
21261;DHT22;10788;47.930;9.766;2023-05-07T00:55:38;13.40;99.90
21261;DHT22;10788;47.930;9.766;2023-05-07T00:58:04;13.30;99.90
21261;DHT22;10788;47.930;9.766;2023-05-07T01:00:31;13.40;99.90
21261;DHT22;10788;47.930;9.766;2023-05-07T01:02:57;13.30;99.90
21261;DHT22;10788;47.930;9.766;2023-05-07T01:05:24;13.30;99.90
21261;DHT22;10788;47.930;9.766;2023-05-07T01:07:53;13.30;99.90
21261;DHT22;10788;47.930;9.766;2023-05-07T01:10:20;13.30;99.90
21261;DHT22;10788;47.930;9.766;2023-05-07T01:12:46;13.30;99.90
21261;DHT22;10788;47.930;9.766;2023-05-07T01:15:14;13.20;99.90
21261;DHT22;10788;47.930;9.766;2023-05-07T01:17:41;13.20;99.90
21261;DHT22;10788;47.930;9.766;2023-05-07T01:20:08;13.20;99.90
21261;DHT22;10788;47.930;9.766;2023-05-07T01:22:37;13.20;99.90
21261;DHT22;10788;47.930;9.766;2023-05-07T01:25:04;13.20;99.90
21261;DHT22;10788;47.930;9.766;2023-05-07T01:27:31;13.20;99.90
21261;DHT22;10788;47.930;9.766;2023-05-07T01:29:59;13.20;99.90
21261;DHT22;10788;47.930;9.766;2023-05-07T01:32:48;13.10;99.90
21261;DHT22;10788;47.930;9.766;2023-05-07T01:35:19;13.10;99.90
21261;DHT22;10788;47.930;9.766;2023-05-07T01:37:46;13.00;99.90
21261;DHT22;10788;47.930;9.766;2023-05-07T01:40:13;13.00;99.90
21261;DHT22;10788;47.930;9.766;2023-05-07T01:42:39;13.00;99.90
21261;DHT22;10788;47.930;9.766;2023-05-07T01:45:06;13.00;99.90
21261;DHT22;10788;47.930;9.766;2023-05-07T01:47:32;12.90;99.90
21261;DHT22;10788;47.930;9.766;2023-05-07T01:49:58;12.90;99.90
21261;DHT22;10788;47.930;9.766;2023-05-07T01:52:24;13.00;99.90
21261;DHT22;10788;47.930;9.766;2023-05-07T01:54:50;12.80;99.90
21261;DHT22;10788;47.930;9.766;2023-05-07T01:57:16;12.70;99.90
21261;DHT22;10788;47.930;9.766;2023-05-07T01:59:41;12.80;99.90
21261;DHT22;10788;47.930;9.766;2023-05-07T02:02:07;12.70;99.90
21261;DHT22;10788;47.930;9.766;2023-05-07T02:04:33;12.70;99.90
21261;DHT22;10788;47.930;9.766;2023-05-07T02:06:58;12.70;99.90
21261;DHT22;10788;47.930;9.766;2023-05-07T02:09:24;12.60;99.90
21261;DHT22;10788;47.930;9.766;2023-05-07T02:11:49;12.70;99.90
21261;DHT22;10788;47.930;9.766;2023-05-07T02:14:15;12.60;99.90
21261;DHT22;10788;47.930;9.766;2023-05-07T02:16:41;12.70;99.90
21261;DHT22;10788;47.930;9.766;2023-05-07T02:19:07;12.60;99.90
21261;DHT22;10788;47.930;9.766;2023-05-07T02:21:32;12.50;99.90
21261;DHT22;10788;47.930;9.766;2023-05-07T02:23:58;12.50;99.90
21261;DHT22;10788;47.930;9.766;2023-05-07T02:26:23;12.40;99.90
21261;DHT22;10788;47.930;9.766;2023-05-07T02:28:49;12.40;99.90
21261;DHT22;10788;47.930;9.766;2023-05-07T02:31:14;12.50;99.90
21261;DHT22;10788;47.930;9.766;2023-05-07T02:33:40;12.50;99.90
21261;DHT22;10788;47.930;9.766;2023-05-07T02:36:10;12.40;99.90
21261;DHT22;10788;47.930;9.766;2023-05-07T02:38:36;12.40;99.90
21261;DHT22;10788;47.930;9.766;2023-05-07T02:41:01;12.50;99.90
21261;DHT22;10788;47.930;9.766;2023-05-07T02:43:27;12.50;99.90
21261;DHT22;10788;47.930;9.766;2023-05-07T02:46:03;12.40;99.90
21261;DHT22;10788;47.930;9.766;2023-05-07T02:48:29;12.40;99.90
21261;DHT22;10788;47.930;9.766;2023-05-07T02:50:55;12.40;99.90
21261;DHT22;10788;47.930;9.766;2023-05-07T02:53:20;12.40;99.90
21261;DHT22;10788;47.930;9.766;2023-05-07T02:55:46;12.40;99.90
21261;DHT22;10788;47.930;9.766;2023-05-07T02:58:11;12.30;99.90
21261;DHT22;10788;47.930;9.766;2023-05-07T03:00:37;12.40;99.90
21261;DHT22;10788;47.930;9.766;2023-05-07T03:03:03;12.20;99.90
21261;DHT22;10788;47.930;9.766;2023-05-07T03:05:28;12.20;99.90
21261;DHT22;10788;47.930;9.766;2023-05-07T03:07:54;12.20;99.90
21261;DHT22;10788;47.930;9.766;2023-05-07T03:10:19;12.10;99.90
21261;DHT22;10788;47.930;9.766;2023-05-07T03:12:45;12.10;99.90
21261;DHT22;10788;47.930;9.766;2023-05-07T03:15:11;12.00;99.90
21261;DHT22;10788;47.930;9.766;2023-05-07T03:17:39;11.90;99.90
21261;DHT22;10788;47.930;9.766;2023-05-07T03:20:06;11.80;99.90
21261;DHT22;10788;47.930;9.766;2023-05-07T03:22:32;11.70;99.90
21261;DHT22;10788;47.930;9.766;2023-05-07T03:24:57;11.70;99.90
21261;DHT22;10788;47.930;9.766;2023-05-07T03:27:23;11.60;99.90
21261;DHT22;10788;47.930;9.766;2023-05-07T03:29:49;11.70;99.90
21261;DHT22;10788;47.930;9.766;2023-05-07T03:32:15;11.80;99.90
21261;DHT22;10788;47.930;9.766;2023-05-07T03:34:40;11.80;99.90
21261;DHT22;10788;47.930;9.766;2023-05-07T03:37:06;11.70;99.90
21261;DHT22;10788;47.930;9.766;2023-05-07T03:39:32;11.70;99.90
21261;DHT22;10788;47.930;9.766;2023-05-07T03:41:58;11.70;99.90
21261;DHT22;10788;47.930;9.766;2023-05-07T03:44:23;11.80;99.90
21261;DHT22;10788;47.930;9.766;2023-05-07T03:46:49;11.70;99.90
21261;DHT22;10788;47.930;9.766;2023-05-07T03:49:15;11.70;99.90
21261;DHT22;10788;47.930;9.766;2023-05-07T03:51:40;11.70;99.90
21261;DHT22;10788;47.930;9.766;2023-05-07T03:54:06;11.60;99.90
21261;DHT22;10788;47.930;9.766;2023-05-07T03:56:32;11.50;99.90
21261;DHT22;10788;47.930;9.766;2023-05-07T03:58:57;11.60;99.90
21261;DHT22;10788;47.930;9.766;2023-05-07T04:01:23;11.50;99.90
21261;DHT22;10788;47.930;9.766;2023-05-07T04:03:48;11.40;99.90
21261;DHT22;10788;47.930;9.766;2023-05-07T04:06:16;11.30;99.90
21261;DHT22;10788;47.930;9.766;2023-05-07T04:08:43;11.40;99.90
21261;DHT22;10788;47.930;9.766;2023-05-07T04:11:08;11.40;99.90
21261;DHT22;10788;47.930;9.766;2023-05-07T04:13:34;11.20;99.90
21261;DHT22;10788;47.930;9.766;2023-05-07T04:16:01;11.20;99.90
21261;DHT22;10788;47.930;9.766;2023-05-07T04:18:27;11.10;99.90
21261;DHT22;10788;47.930;9.766;2023-05-07T04:20:53;11.30;99.90
21261;DHT22;10788;47.930;9.766;2023-05-07T04:23:18;11.30;99.90
21261;DHT22;10788;47.930;9.766;2023-05-07T04:25:44;11.10;99.90
21261;DHT22;10788;47.930;9.766;2023-05-07T04:28:10;11.30;99.90
21261;DHT22;10788;47.930;9.766;2023-05-07T04:30:37;11.30;99.90
21261;DHT22;10788;47.930;9.766;2023-05-07T04:33:02;11.30;99.90
21261;DHT22;10788;47.930;9.766;2023-05-07T04:35:28;11.30;99.90
21261;DHT22;10788;47.930;9.766;2023-05-07T04:37:53;11.20;99.90
21261;DHT22;10788;47.930;9.766;2023-05-07T04:40:19;11.20;99.90
21261;DHT22;10788;47.930;9.766;2023-05-07T04:42:45;11.30;99.90
21261;DHT22;10788;47.930;9.766;2023-05-07T04:45:11;11.30;99.90
21261;DHT22;10788;47.930;9.766;2023-05-07T04:47:38;11.30;99.90
21261;DHT22;10788;47.930;9.766;2023-05-07T04:50:04;11.30;99.90
21261;DHT22;10788;47.930;9.766;2023-05-07T04:52:30;11.30;99.90
21261;DHT22;10788;47.930;9.766;2023-05-07T04:54:58;11.40;99.90
21261;DHT22;10788;47.930;9.766;2023-05-07T04:57:24;11.40;99.90
21261;DHT22;10788;47.930;9.766;2023-05-07T04:59:50;11.40;99.90
21261;DHT22;10788;47.930;9.766;2023-05-07T05:02:16;11.50;99.90
21261;DHT22;10788;47.930;9.766;2023-05-07T05:04:41;11.50;99.90
21261;DHT22;10788;47.930;9.766;2023-05-07T05:07:07;11.60;99.90
21261;DHT22;10788;47.930;9.766;2023-05-07T05:09:33;11.70;99.90
21261;DHT22;10788;47.930;9.766;2023-05-07T05:11:59;11.70;99.90
21261;DHT22;10788;47.930;9.766;2023-05-07T05:14:25;11.70;99.90
21261;DHT22;10788;47.930;9.766;2023-05-07T05:16:50;11.70;99.90
21261;DHT22;10788;47.930;9.766;2023-05-07T05:19:16;11.80;99.90
21261;DHT22;10788;47.930;9.766;2023-05-07T05:21:42;12.00;99.90
21261;DHT22;10788;47.930;9.766;2023-05-07T05:24:07;12.10;99.90
21261;DHT22;10788;47.930;9.766;2023-05-07T05:26:33;12.20;99.90
21261;DHT22;10788;47.930;9.766;2023-05-07T05:28:59;12.20;99.90
21261;DHT22;10788;47.930;9.766;2023-05-07T05:31:25;12.20;99.90
21261;DHT22;10788;47.930;9.766;2023-05-07T05:33:51;12.40;99.90
21261;DHT22;10788;47.930;9.766;2023-05-07T05:36:17;12.40;99.90
21261;DHT22;10788;47.930;9.766;2023-05-07T05:38:42;12.50;99.90
21261;DHT22;10788;47.930;9.766;2023-05-07T05:41:09;12.50;99.90
21261;DHT22;10788;47.930;9.766;2023-05-07T05:43:35;12.70;99.90
21261;DHT22;10788;47.930;9.766;2023-05-07T05:46:00;12.70;99.90
21261;DHT22;10788;47.930;9.766;2023-05-07T05:48:26;12.90;99.90
21261;DHT22;10788;47.930;9.766;2023-05-07T05:50:51;13.00;99.90
21261;DHT22;10788;47.930;9.766;2023-05-07T05:53:17;13.00;99.90
21261;DHT22;10788;47.930;9.766;2023-05-07T05:55:43;13.10;99.90
21261;DHT22;10788;47.930;9.766;2023-05-07T05:58:09;13.20;99.90
21261;DHT22;10788;47.930;9.766;2023-05-07T06:00:35;13.40;99.90
21261;DHT22;10788;47.930;9.766;2023-05-07T06:03:01;13.50;99.90
21261;DHT22;10788;47.930;9.766;2023-05-07T06:05:26;13.60;99.90
21261;DHT22;10788;47.930;9.766;2023-05-07T06:07:52;13.80;99.90
21261;DHT22;10788;47.930;9.766;2023-05-07T06:10:17;13.90;99.90
21261;DHT22;10788;47.930;9.766;2023-05-07T06:12:43;14.10;99.90
21261;DHT22;10788;47.930;9.766;2023-05-07T06:15:10;14.20;99.90
21261;DHT22;10788;47.930;9.766;2023-05-07T06:17:35;14.30;99.90
21261;DHT22;10788;47.930;9.766;2023-05-07T06:20:01;14.40;99.90
21261;DHT22;10788;47.930;9.766;2023-05-07T06:22:27;14.60;99.90
21261;DHT22;10788;47.930;9.766;2023-05-07T06:24:52;14.70;99.90
21261;DHT22;10788;47.930;9.766;2023-05-07T06:27:18;14.80;99.90
21261;DHT22;10788;47.930;9.766;2023-05-07T06:29:43;14.90;99.90
21261;DHT22;10788;47.930;9.766;2023-05-07T06:32:13;15.00;99.90
21261;DHT22;10788;47.930;9.766;2023-05-07T06:34:39;15.20;99.90
21261;DHT22;10788;47.930;9.766;2023-05-07T06:37:06;15.40;99.90
21261;DHT22;10788;47.930;9.766;2023-05-07T06:39:32;15.50;99.90
21261;DHT22;10788;47.930;9.766;2023-05-07T06:41:59;15.60;99.90
21261;DHT22;10788;47.930;9.766;2023-05-07T06:44:25;15.70;99.90
21261;DHT22;10788;47.930;9.766;2023-05-07T06:46:50;15.90;99.90
21261;DHT22;10788;47.930;9.766;2023-05-07T06:49:16;16.00;99.90
21261;DHT22;10788;47.930;9.766;2023-05-07T06:51:42;16.00;99.90
21261;DHT22;10788;47.930;9.766;2023-05-07T06:54:07;16.10;99.90
21261;DHT22;10788;47.930;9.766;2023-05-07T06:56:33;16.20;99.90
21261;DHT22;10788;47.930;9.766;2023-05-07T06:59:00;16.30;99.90
21261;DHT22;10788;47.930;9.766;2023-05-07T07:01:26;16.40;99.90
21261;DHT22;10788;47.930;9.766;2023-05-07T07:03:52;16.50;99.90
21261;DHT22;10788;47.930;9.766;2023-05-07T07:06:17;16.50;99.90
21261;DHT22;10788;47.930;9.766;2023-05-07T07:08:43;16.70;99.90
21261;DHT22;10788;47.930;9.766;2023-05-07T07:11:10;16.70;99.90
21261;DHT22;10788;47.930;9.766;2023-05-07T07:13:36;16.70;99.90
21261;DHT22;10788;47.930;9.766;2023-05-07T07:16:02;16.80;99.90
21261;DHT22;10788;47.930;9.766;2023-05-07T07:18:28;16.90;99.90
21261;DHT22;10788;47.930;9.766;2023-05-07T07:20:54;17.10;99.90
21261;DHT22;10788;47.930;9.766;2023-05-07T07:23:20;17.30;99.90
21261;DHT22;10788;47.930;9.766;2023-05-07T07:25:45;17.50;99.90
21261;DHT22;10788;47.930;9.766;2023-05-07T07:28:11;17.70;99.90
21261;DHT22;10788;47.930;9.766;2023-05-07T07:30:37;17.80;99.90
21261;DHT22;10788;47.930;9.766;2023-05-07T07:33:03;17.90;99.90
21261;DHT22;10788;47.930;9.766;2023-05-07T07:35:29;18.00;99.90
21261;DHT22;10788;47.930;9.766;2023-05-07T07:37:55;17.90;99.90
21261;DHT22;10788;47.930;9.766;2023-05-07T07:40:21;17.90;99.90
21261;DHT22;10788;47.930;9.766;2023-05-07T07:42:47;17.90;99.90
21261;DHT22;10788;47.930;9.766;2023-05-07T07:45:12;17.90;99.90
21261;DHT22;10788;47.930;9.766;2023-05-07T07:47:39;18.00;99.90
21261;DHT22;10788;47.930;9.766;2023-05-07T07:50:05;18.00;99.90
21261;DHT22;10788;47.930;9.766;2023-05-07T07:52:31;18.00;99.90
21261;DHT22;10788;47.930;9.766;2023-05-07T07:54:57;18.10;99.90
21261;DHT22;10788;47.930;9.766;2023-05-07T07:57:22;18.30;99.90
21261;DHT22;10788;47.930;9.766;2023-05-07T07:59:48;18.60;99.90
21261;DHT22;10788;47.930;9.766;2023-05-07T08:02:14;18.80;99.90
21261;DHT22;10788;47.930;9.766;2023-05-07T08:04:39;19.10;99.90
21261;DHT22;10788;47.930;9.766;2023-05-07T08:07:05;19.30;99.90
21261;DHT22;10788;47.930;9.766;2023-05-07T08:09:31;19.40;99.90
21261;DHT22;10788;47.930;9.766;2023-05-07T08:11:57;19.60;99.90
21261;DHT22;10788;47.930;9.766;2023-05-07T08:14:22;19.70;99.90
21261;DHT22;10788;47.930;9.766;2023-05-07T08:16:48;19.80;99.90
21261;DHT22;10788;47.930;9.766;2023-05-07T08:19:14;20.00;99.90
21261;DHT22;10788;47.930;9.766;2023-05-07T08:21:40;20.00;99.90
21261;DHT22;10788;47.930;9.766;2023-05-07T08:24:06;20.00;99.90
21261;DHT22;10788;47.930;9.766;2023-05-07T08:26:31;20.10;99.90
21261;DHT22;10788;47.930;9.766;2023-05-07T08:28:57;20.20;99.90
21261;DHT22;10788;47.930;9.766;2023-05-07T08:31:23;20.30;99.90
21261;DHT22;10788;47.930;9.766;2023-05-07T08:33:50;20.60;99.90
21261;DHT22;10788;47.930;9.766;2023-05-07T08:36:15;20.80;99.90
21261;DHT22;10788;47.930;9.766;2023-05-07T08:38:41;20.90;99.90
21261;DHT22;10788;47.930;9.766;2023-05-07T08:41:10;21.20;99.90
21261;DHT22;10788;47.930;9.766;2023-05-07T08:43:36;21.50;99.90
21261;DHT22;10788;47.930;9.766;2023-05-07T08:46:04;21.60;99.90
21261;DHT22;10788;47.930;9.766;2023-05-07T08:48:31;21.70;99.90
21261;DHT22;10788;47.930;9.766;2023-05-07T08:50:58;21.80;99.90
21261;DHT22;10788;47.930;9.766;2023-05-07T08:53:24;22.00;99.90
21261;DHT22;10788;47.930;9.766;2023-05-07T08:55:51;22.20;99.90
21261;DHT22;10788;47.930;9.766;2023-05-07T08:58:18;22.20;99.90
21261;DHT22;10788;47.930;9.766;2023-05-07T09:00:43;22.30;99.90
21261;DHT22;10788;47.930;9.766;2023-05-07T09:03:09;22.30;99.90
21261;DHT22;10788;47.930;9.766;2023-05-07T09:05:38;22.20;99.90
21261;DHT22;10788;47.930;9.766;2023-05-07T09:08:05;22.20;99.90
21261;DHT22;10788;47.930;9.766;2023-05-07T09:10:33;22.10;99.90
21261;DHT22;10788;47.930;9.766;2023-05-07T09:13:05;22.10;99.90
21261;DHT22;10788;47.930;9.766;2023-05-07T09:15:31;22.20;99.90
21261;DHT22;10788;47.930;9.766;2023-05-07T09:18:00;22.10;99.90
21261;DHT22;10788;47.930;9.766;2023-05-07T09:20:30;22.30;99.90
21261;DHT22;10788;47.930;9.766;2023-05-07T09:22:56;22.40;99.90
21261;DHT22;10788;47.930;9.766;2023-05-07T09:25:32;22.60;99.90
21261;DHT22;10788;47.930;9.766;2023-05-07T09:28:00;22.60;99.90
21261;DHT22;10788;47.930;9.766;2023-05-07T09:30:29;22.70;99.90
21261;DHT22;10788;47.930;9.766;2023-05-07T09:32:57;22.70;99.90
21261;DHT22;10788;47.930;9.766;2023-05-07T09:35:24;22.60;99.90
21261;DHT22;10788;47.930;9.766;2023-05-07T09:37:57;22.80;99.90
21261;DHT22;10788;47.930;9.766;2023-05-07T09:40:24;22.90;99.90
21261;DHT22;10788;47.930;9.766;2023-05-07T09:42:50;22.70;99.90
21261;DHT22;10788;47.930;9.766;2023-05-07T09:45:21;22.90;99.90
21261;DHT22;10788;47.930;9.766;2023-05-07T09:47:48;22.70;99.90
21261;DHT22;10788;47.930;9.766;2023-05-07T09:50:16;22.70;99.90
21261;DHT22;10788;47.930;9.766;2023-05-07T09:52:44;22.70;99.90
21261;DHT22;10788;47.930;9.766;2023-05-07T09:55:10;23.00;99.90
21261;DHT22;10788;47.930;9.766;2023-05-07T09:57:38;23.10;99.90
21261;DHT22;10788;47.930;9.766;2023-05-07T10:00:06;22.70;99.90
21261;DHT22;10788;47.930;9.766;2023-05-07T10:02:35;22.60;99.90
21261;DHT22;10788;47.930;9.766;2023-05-07T10:05:02;22.80;99.90
21261;DHT22;10788;47.930;9.766;2023-05-07T10:07:28;22.90;99.90
21261;DHT22;10788;47.930;9.766;2023-05-07T10:09:55;23.20;99.90
21261;DHT22;10788;47.930;9.766;2023-05-07T10:12:21;23.00;99.90
21261;DHT22;10788;47.930;9.766;2023-05-07T10:14:47;23.00;99.90
21261;DHT22;10788;47.930;9.766;2023-05-07T10:17:15;22.90;99.90
21261;DHT22;10788;47.930;9.766;2023-05-07T10:19:44;23.00;99.90
21261;DHT22;10788;47.930;9.766;2023-05-07T10:22:10;23.00;99.90
21261;DHT22;10788;47.930;9.766;2023-05-07T10:24:36;22.80;99.90
21261;DHT22;10788;47.930;9.766;2023-05-07T10:27:09;22.80;99.90
21261;DHT22;10788;47.930;9.766;2023-05-07T10:32:29;22.70;99.90
21261;DHT22;10788;47.930;9.766;2023-05-07T10:34:57;22.70;99.90
21261;DHT22;10788;47.930;9.766;2023-05-07T10:37:25;22.70;99.90
21261;DHT22;10788;47.930;9.766;2023-05-07T10:39:51;22.70;99.90
21261;DHT22;10788;47.930;9.766;2023-05-07T10:42:17;22.90;99.90
21261;DHT22;10788;47.930;9.766;2023-05-07T10:44:43;22.90;99.90
21261;DHT22;10788;47.930;9.766;2023-05-07T10:47:14;22.60;99.90
21261;DHT22;10788;47.930;9.766;2023-05-07T10:52:20;22.90;99.90
21261;DHT22;10788;47.930;9.766;2023-05-07T10:54:46;22.60;99.90
21261;DHT22;10788;47.930;9.766;2023-05-07T10:59:56;23.10;99.90
21261;DHT22;10788;47.930;9.766;2023-05-07T11:02:22;23.30;99.90
21261;DHT22;10788;47.930;9.766;2023-05-07T11:05:20;23.10;99.90
21261;DHT22;10788;47.930;9.766;2023-05-07T11:08:01;23.30;99.90
21261;DHT22;10788;47.930;9.766;2023-05-07T11:13:40;23.40;99.90
21261;DHT22;10788;47.930;9.766;2023-05-07T11:16:12;23.20;99.90
21261;DHT22;10788;47.930;9.766;2023-05-07T11:18:52;23.30;99.90
21261;DHT22;10788;47.930;9.766;2023-05-07T11:24:01;23.20;99.90
21261;DHT22;10788;47.930;9.766;2023-05-07T11:26:28;23.30;99.90
21261;DHT22;10788;47.930;9.766;2023-05-07T11:28:54;23.40;99.90
21261;DHT22;10788;47.930;9.766;2023-05-07T11:31:25;23.50;99.90
21261;DHT22;10788;47.930;9.766;2023-05-07T11:33:52;23.60;99.90
21261;DHT22;10788;47.930;9.766;2023-05-07T11:36:19;23.70;99.90
21261;DHT22;10788;47.930;9.766;2023-05-07T11:38:46;23.70;99.90
21261;DHT22;10788;47.930;9.766;2023-05-07T11:41:11;23.50;99.90
21261;DHT22;10788;47.930;9.766;2023-05-07T11:43:37;23.50;99.90
21261;DHT22;10788;47.930;9.766;2023-05-07T11:46:09;23.50;99.90
21261;DHT22;10788;47.930;9.766;2023-05-07T11:48:35;23.50;99.90
21261;DHT22;10788;47.930;9.766;2023-05-07T11:51:06;23.50;99.90
21261;DHT22;10788;47.930;9.766;2023-05-07T11:53:36;23.50;99.90
21261;DHT22;10788;47.930;9.766;2023-05-07T11:56:07;23.40;99.90
21261;DHT22;10788;47.930;9.766;2023-05-07T11:58:33;23.40;99.90
21261;DHT22;10788;47.930;9.766;2023-05-07T12:00:59;23.30;99.90
21261;DHT22;10788;47.930;9.766;2023-05-07T12:03:24;23.20;99.90
21261;DHT22;10788;47.930;9.766;2023-05-07T12:05:50;23.20;99.90
21261;DHT22;10788;47.930;9.766;2023-05-07T12:08:16;23.10;99.90
21261;DHT22;10788;47.930;9.766;2023-05-07T12:10:43;23.00;99.90
21261;DHT22;10788;47.930;9.766;2023-05-07T12:13:20;23.00;99.90
21261;DHT22;10788;47.930;9.766;2023-05-07T12:15:50;23.00;99.90
21261;DHT22;10788;47.930;9.766;2023-05-07T12:18:16;23.00;99.90
21261;DHT22;10788;47.930;9.766;2023-05-07T12:20:42;23.10;99.90
21261;DHT22;10788;47.930;9.766;2023-05-07T12:23:08;23.10;99.90
21261;DHT22;10788;47.930;9.766;2023-05-07T12:25:38;23.10;99.90
21261;DHT22;10788;47.930;9.766;2023-05-07T12:28:04;23.10;99.90
21261;DHT22;10788;47.930;9.766;2023-05-07T12:30:37;23.20;99.90
21261;DHT22;10788;47.930;9.766;2023-05-07T12:33:03;23.10;99.90
21261;DHT22;10788;47.930;9.766;2023-05-07T12:35:35;23.20;99.90
21261;DHT22;10788;47.930;9.766;2023-05-07T12:38:01;23.20;99.90
21261;DHT22;10788;47.930;9.766;2023-05-07T12:40:49;23.20;99.90
21261;DHT22;10788;47.930;9.766;2023-05-07T12:45:46;23.00;99.90
21261;DHT22;10788;47.930;9.766;2023-05-07T12:48:12;23.00;99.90
21261;DHT22;10788;47.930;9.766;2023-05-07T12:50:38;22.90;99.90
21261;DHT22;10788;47.930;9.766;2023-05-07T12:53:04;22.80;99.90
21261;DHT22;10788;47.930;9.766;2023-05-07T12:55:50;22.80;99.90
21261;DHT22;10788;47.930;9.766;2023-05-07T12:58:17;22.70;99.90
21261;DHT22;10788;47.930;9.766;2023-05-07T13:00:44;22.60;99.90
21261;DHT22;10788;47.930;9.766;2023-05-07T13:03:11;22.50;99.90
21261;DHT22;10788;47.930;9.766;2023-05-07T13:05:37;22.70;99.90
21261;DHT22;10788;47.930;9.766;2023-05-07T13:08:02;22.70;99.90
21261;DHT22;10788;47.930;9.766;2023-05-07T13:10:28;22.80;99.90
21261;DHT22;10788;47.930;9.766;2023-05-07T13:12:54;22.90;99.90
21261;DHT22;10788;47.930;9.766;2023-05-07T13:15:20;23.00;99.90
21261;DHT22;10788;47.930;9.766;2023-05-07T13:17:47;22.90;99.90
21261;DHT22;10788;47.930;9.766;2023-05-07T13:20:12;22.70;99.90
21261;DHT22;10788;47.930;9.766;2023-05-07T13:22:39;22.70;99.90
21261;DHT22;10788;47.930;9.766;2023-05-07T13:25:05;22.80;99.90
21261;DHT22;10788;47.930;9.766;2023-05-07T13:27:31;22.80;99.90
21261;DHT22;10788;47.930;9.766;2023-05-07T13:29:57;22.60;99.90
21261;DHT22;10788;47.930;9.766;2023-05-07T13:32:22;22.60;99.90
21261;DHT22;10788;47.930;9.766;2023-05-07T13:34:48;22.70;99.90
21261;DHT22;10788;47.930;9.766;2023-05-07T13:37:14;22.80;99.90
21261;DHT22;10788;47.930;9.766;2023-05-07T13:39:39;22.90;99.90
21261;DHT22;10788;47.930;9.766;2023-05-07T13:42:06;23.00;99.90
21261;DHT22;10788;47.930;9.766;2023-05-07T13:44:31;23.00;99.90
21261;DHT22;10788;47.930;9.766;2023-05-07T13:46:57;23.10;99.90
21261;DHT22;10788;47.930;9.766;2023-05-07T13:49:23;22.90;99.90
21261;DHT22;10788;47.930;9.766;2023-05-07T13:51:49;22.80;99.90
21261;DHT22;10788;47.930;9.766;2023-05-07T13:54:14;22.80;99.90
21261;DHT22;10788;47.930;9.766;2023-05-07T13:56:41;22.90;99.90
21261;DHT22;10788;47.930;9.766;2023-05-07T13:59:07;23.00;99.90
21261;DHT22;10788;47.930;9.766;2023-05-07T14:01:32;23.00;99.90
21261;DHT22;10788;47.930;9.766;2023-05-07T14:03:58;23.00;99.90
21261;DHT22;10788;47.930;9.766;2023-05-07T14:06:24;23.00;99.90
21261;DHT22;10788;47.930;9.766;2023-05-07T14:08:50;23.00;99.90
21261;DHT22;10788;47.930;9.766;2023-05-07T14:11:16;23.10;99.90
21261;DHT22;10788;47.930;9.766;2023-05-07T14:13:41;23.10;99.90
21261;DHT22;10788;47.930;9.766;2023-05-07T14:16:07;23.20;99.90
21261;DHT22;10788;47.930;9.766;2023-05-07T14:18:33;23.20;99.90
21261;DHT22;10788;47.930;9.766;2023-05-07T14:20:59;23.30;99.90
21261;DHT22;10788;47.930;9.766;2023-05-07T14:23:25;23.40;99.90
21261;DHT22;10788;47.930;9.766;2023-05-07T14:25:52;23.50;99.90
21261;DHT22;10788;47.930;9.766;2023-05-07T14:28:18;23.50;99.90
21261;DHT22;10788;47.930;9.766;2023-05-07T14:30:44;23.60;99.90
21261;DHT22;10788;47.930;9.766;2023-05-07T14:33:10;23.60;99.90
21261;DHT22;10788;47.930;9.766;2023-05-07T14:35:35;23.90;99.90
21261;DHT22;10788;47.930;9.766;2023-05-07T14:38:01;24.10;99.90
21261;DHT22;10788;47.930;9.766;2023-05-07T14:40:27;24.30;99.90
21261;DHT22;10788;47.930;9.766;2023-05-07T14:42:52;24.50;99.90
21261;DHT22;10788;47.930;9.766;2023-05-07T14:45:18;24.60;99.90
21261;DHT22;10788;47.930;9.766;2023-05-07T14:47:43;24.70;99.90
21261;DHT22;10788;47.930;9.766;2023-05-07T14:50:09;24.90;99.90
21261;DHT22;10788;47.930;9.766;2023-05-07T14:52:35;25.00;99.90
21261;DHT22;10788;47.930;9.766;2023-05-07T14:55:00;25.00;99.90
21261;DHT22;10788;47.930;9.766;2023-05-07T14:57:26;25.00;99.90
21261;DHT22;10788;47.930;9.766;2023-05-07T14:59:52;24.90;99.90
21261;DHT22;10788;47.930;9.766;2023-05-07T15:02:17;24.70;99.90
21261;DHT22;10788;47.930;9.766;2023-05-07T15:04:43;23.90;99.90
21261;DHT22;10788;47.930;9.766;2023-05-07T15:07:15;23.30;99.90
21261;DHT22;10788;47.930;9.766;2023-05-07T15:09:42;23.10;99.90
21261;DHT22;10788;47.930;9.766;2023-05-07T15:12:07;22.70;99.90
21261;DHT22;10788;47.930;9.766;2023-05-07T15:14:34;22.30;99.90
21261;DHT22;10788;47.930;9.766;2023-05-07T15:17:00;21.80;99.90
21261;DHT22;10788;47.930;9.766;2023-05-07T15:19:25;21.10;99.90
21261;DHT22;10788;47.930;9.766;2023-05-07T15:21:55;20.90;99.90
21261;DHT22;10788;47.930;9.766;2023-05-07T15:24:22;20.50;99.90
21261;DHT22;10788;47.930;9.766;2023-05-07T15:26:48;20.30;99.90
21261;DHT22;10788;47.930;9.766;2023-05-07T15:29:13;20.20;99.90
21261;DHT22;10788;47.930;9.766;2023-05-07T15:31:39;20.30;99.90
21261;DHT22;10788;47.930;9.766;2023-05-07T15:34:05;20.40;99.90
21261;DHT22;10788;47.930;9.766;2023-05-07T15:36:30;20.60;99.90
21261;DHT22;10788;47.930;9.766;2023-05-07T15:38:56;20.60;99.90
21261;DHT22;10788;47.930;9.766;2023-05-07T15:41:22;20.50;99.90
21261;DHT22;10788;47.930;9.766;2023-05-07T15:43:50;19.90;99.90